This is the latest recevied weather packets stored in our database for station/object YO9FTR-10. If no packets are shown the sender has not sent any weather packets the latest 10 day(s).
| Time | Temp. | Humidity | Pressure | Rain* | Wind** | Luminosity | Snow |
|---|---|---|---|---|---|---|---|
| 1777954924 | 11.67° C | 65% | 1020.6 hPa | - | - | - | - |
| 1777954021 | 10° C | 69% | 1020.6 hPa | - | - | - | - |
| 1777953118 | 9.44° C | 72% | 1020.6 hPa | - | - | - | - |
| 1777952215 | 8.89° C | 71% | 1020.6 hPa | - | - | - | - |
| 1777951312 | 8.89° C | 73% | 1020.6 hPa | - | - | - | - |
| 1777950409 | 7.78° C | 77% | 1020.5 hPa | - | - | - | - |
| 1777949506 | 8.33° C | 73% | 1020.4 hPa | - | - | - | - |
| 1777948603 | 7.78° C | 75% | 1020.4 hPa | - | - | - | - |
| 1777947701 | 7.78° C | 77% | 1020.4 hPa | - | - | - | - |
| 1777946798 | 9.44° C | 67% | 1020.3 hPa | - | - | - | - |
| 1777945895 | 11.11° C | 60% | 1020.2 hPa | - | - | - | - |
| 1777944991 | 9.44° C | 66% | 1020.2 hPa | - | - | - | - |
| 1777944089 | 10.56° C | 60% | 1020.1 hPa | - | - | - | - |
| 1777943186 | 10° C | 63% | 1020.1 hPa | - | - | - | - |
| 1777942283 | 9.44° C | 67% | 1020.3 hPa | - | - | - | - |
| 1777941380 | 8.89° C | 69% | 1020.1 hPa | - | - | - | - |
| 1777940478 | 7.22° C | 79% | 1020.2 hPa | - | - | - | - |
| 1777939575 | 6.67° C | 81% | 1020.3 hPa | - | - | - | - |
| 1777938672 | 6.67° C | 82% | 1020.3 hPa | - | - | - | - |
| 1777937769 | 7.22° C | 79% | 1020.3 hPa | - | - | - | - |
| 1777936866 | 7.78° C | 77% | 1020.4 hPa | - | - | - | - |
| 1777935963 | 8.89° C | 68% | 1020.6 hPa | - | - | - | - |
| 1777935061 | 8.33° C | 75% | 1020.6 hPa | - | - | - | - |
| 1777934158 | 8.33° C | 74% | 1020.5 hPa | - | - | - | - |
| 1777933255 | 7.22° C | 82% | 1020.7 hPa | - | - | - | - |
* Rain since midnight (hover to see other rain measurements)
** Current wind speed in m/s (hover to see current wind gust speed)